Ganasa — EA8999 — position and weather

sailwx.info

Track history (hours):
 
Tides and Currents Weather Stations Pressure Air Temp Water Temp Dewpoint Dewpoint Depression Visibility Wind Speed Wind Dir Waves Ship Positions

Ganasa

Last reported at 2018-Jan-12 14:55 UTC. Time now 2018-Jan-18 00:13 UTC.
Position N 38°55' E 001°26'.

Length 20 m.

Type: Fishing. MMSI: 224071880.

Date/timePositionNaut miles runAvg speedWind from/ knotsBaromVisibWave heightAir tempDewpointWater temp
2018-Jan-12 14:55N 38°55' E 001°26'0 0.0
2018-Jan-12 14:29N 38°55' E 001°26'2 3.5
2018-Jan-12 13:59N 38°54' E 001°28'4 8.6
2018-Jan-12 13:30N 38°51' E 001°32'2 1.6
2018-Jan-12 11:59N 38°50' E 001°35'1 2.4
2018-Jan-12 11:30N 38°51' E 001°35'1 2.3
2018-Jan-12 10:58N 38°52' E 001°35'1 2.6
2018-Jan-12 10:30N 38°54' E 001°36'3 6.7
2018-Jan-12 10:00N 38°57' E 001°35'0 0.6
2018-Jan-12 09:30N 38°57' E 001°35'1 2.4
2018-Jan-12 08:59N 38°56' E 001°36'1 2.2
2018-Jan-12 08:30N 38°55' E 001°37'1 2.3
2018-Jan-12 08:00N 38°56' E 001°38'1 2.3
2018-Jan-12 07:30N 38°57' E 001°38'0 0.9
2018-Jan-12 06:59N 38°58' E 001°38'0 0.4
2018-Jan-12 06:30N 38°58' E 001°39'1 2.1
2018-Jan-12 05:58N 38°57' E 001°39'1 2.2
2018-Jan-12 05:27N 38°56' E 001°38'1 2.2
2018-Jan-12 04:56N 38°54' E 001°38'1 2.3
2018-Jan-12 04:26N 38°54' E 001°37'3 7.9
2018-Jan-12 04:00N 38°54' E 001°33'5 7.6
2018-Jan-12 03:23N 38°54' E 001°27'  
2018-Jan-09 15:27N 38°55' E 001°26'0 0.0
2018-Jan-09 14:58N 38°55' E 001°26'0 0.0
2018-Jan-09 14:28N 38°55' E 001°26'2 3.2
2018-Jan-09 13:57N 38°53' E 001°27'  
2018-Jan-04 13:26N 38°55' E 001°26'0 0.0
2018-Jan-04 12:59N 38°55' E 001°26'0 0.0
2018-Jan-04 12:29N 38°55' E 001°26'0 0.1
2018-Jan-04 12:00N 38°55' E 001°26'3 7.0
2018-Jan-04 11:30N 38°51' E 001°26'3 6.5
2018-Jan-04 10:59N 38°49' E 001°29'6 0.3
2018-Jan-03 12:18N 38°55' E 001°26'0 0.0
2018-Jan-03 11:55N 38°55' E 001°26'0 0.0
2018-Jan-03 11:30N 38°55' E 001°26'  
Track history (hours):
 
Tides and Currents Weather Stations Pressure Air Temp Water Temp Dewpoint Dewpoint Depression Visibility Wind Speed Wind Dir Waves Ship Positions

Ganasa

Last reported at 2018-Jan-12 14:55 UTC. Time now 2018-Jan-18 00:13 UTC.
Position N 38°55' E 001°26'.

Length 20 m.

Type: Fishing. MMSI: 224071880.

Date/timePositionNaut miles runAvg speedWind from/ knotsBaromVisibWave heightAir tempDewpointWater temp
2018-Jan-12 14:55N 38°55' E 001°26'0 0.0
2018-Jan-12 14:29N 38°55' E 001°26'2 3.5
2018-Jan-12 13:59N 38°54' E 001°28'4 8.6
2018-Jan-12 13:30N 38°51' E 001°32'2 1.6
2018-Jan-12 11:59N 38°50' E 001°35'1 2.4
2018-Jan-12 11:30N 38°51' E 001°35'1 2.3
2018-Jan-12 10:58N 38°52' E 001°35'1 2.6
2018-Jan-12 10:30N 38°54' E 001°36'3 6.7
2018-Jan-12 10:00N 38°57' E 001°35'0 0.6
2018-Jan-12 09:30N 38°57' E 001°35'1 2.4
2018-Jan-12 08:59N 38°56' E 001°36'1 2.2
2018-Jan-12 08:30N 38°55' E 001°37'1 2.3
2018-Jan-12 08:00N 38°56' E 001°38'1 2.3
2018-Jan-12 07:30N 38°57' E 001°38'0 0.9
2018-Jan-12 06:59N 38°58' E 001°38'0 0.4
2018-Jan-12 06:30N 38°58' E 001°39'1 2.1
2018-Jan-12 05:58N 38°57' E 001°39'1 2.2
2018-Jan-12 05:27N 38°56' E 001°38'1 2.2
2018-Jan-12 04:56N 38°54' E 001°38'1 2.3
2018-Jan-12 04:26N 38°54' E 001°37'3 7.9
2018-Jan-12 04:00N 38°54' E 001°33'5 7.6
2018-Jan-12 03:23N 38°54' E 001°27'  
2018-Jan-09 15:27N 38°55' E 001°26'0 0.0
2018-Jan-09 14:58N 38°55' E 001°26'0 0.0
2018-Jan-09 14:28N 38°55' E 001°26'2 3.2
2018-Jan-09 13:57N 38°53' E 001°27'  
2018-Jan-04 13:26N 38°55' E 001°26'0 0.0
2018-Jan-04 12:59N 38°55' E 001°26'0 0.0
2018-Jan-04 12:29N 38°55' E 001°26'0 0.1
2018-Jan-04 12:00N 38°55' E 001°26'3 7.0
2018-Jan-04 11:30N 38°51' E 001°26'3 6.5
2018-Jan-04 10:59N 38°49' E 001°29'6 0.3
2018-Jan-03 12:18N 38°55' E 001°26'0 0.0
2018-Jan-03 11:55N 38°55' E 001°26'0 0.0
2018-Jan-03 11:30N 38°55' E 001°26'  

Dump ship's entire track history